sensor_id;sensor_type;location;lat;lon;timestamp;P1;durP1;ratioP1;P2;durP2;ratioP2
12848;SDS011;6493;50.928;7.172;2024-03-06T00:01:41;5.13;;;4.63;;
12848;SDS011;6493;50.928;7.172;2024-03-06T00:06:46;6.30;;;4.80;;
12848;SDS011;6493;50.928;7.172;2024-03-06T00:11:50;4.20;;;3.77;;
12848;SDS011;6493;50.928;7.172;2024-03-06T00:16:56;3.67;;;3.13;;
12848;SDS011;6493;50.928;7.172;2024-03-06T00:22:00;3.67;;;3.37;;
12848;SDS011;6493;50.928;7.172;2024-03-06T00:27:04;3.20;;;2.90;;
12848;SDS011;6493;50.928;7.172;2024-03-06T00:32:10;3.60;;;3.30;;
12848;SDS011;6493;50.928;7.172;2024-03-06T00:37:13;3.70;;;3.10;;
12848;SDS011;6493;50.928;7.172;2024-03-06T00:42:17;4.30;;;3.90;;
12848;SDS011;6493;50.928;7.172;2024-03-06T00:47:22;3.87;;;3.30;;
12848;SDS011;6493;50.928;7.172;2024-03-06T00:52:26;4.43;;;3.50;;
12848;SDS011;6493;50.928;7.172;2024-03-06T00:57:30;4.53;;;3.80;;
12848;SDS011;6493;50.928;7.172;2024-03-06T01:02:35;2.97;;;2.67;;
12848;SDS011;6493;50.928;7.172;2024-03-06T01:07:39;3.53;;;3.13;;
12848;SDS011;6493;50.928;7.172;2024-03-06T01:12:43;2.67;;;2.47;;
12848;SDS011;6493;50.928;7.172;2024-03-06T01:17:49;4.00;;;2.97;;
12848;SDS011;6493;50.928;7.172;2024-03-06T01:22:53;3.90;;;3.33;;
12848;SDS011;6493;50.928;7.172;2024-03-06T01:27:57;4.30;;;3.50;;
12848;SDS011;6493;50.928;7.172;2024-03-06T01:33:02;3.27;;;2.67;;
12848;SDS011;6493;50.928;7.172;2024-03-06T01:38:07;3.37;;;3.07;;
12848;SDS011;6493;50.928;7.172;2024-03-06T01:43:21;3.47;;;3.17;;
12848;SDS011;6493;50.928;7.172;2024-03-06T01:48:28;2.90;;;2.60;;
12848;SDS011;6493;50.928;7.172;2024-03-06T01:53:34;2.87;;;2.57;;
12848;SDS011;6493;50.928;7.172;2024-03-06T01:58:38;3.03;;;2.67;;
12848;SDS011;6493;50.928;7.172;2024-03-06T02:03:44;4.03;;;3.30;;
12848;SDS011;6493;50.928;7.172;2024-03-06T02:08:48;3.80;;;3.30;;
12848;SDS011;6493;50.928;7.172;2024-03-06T02:13:52;4.10;;;3.70;;
12848;SDS011;6493;50.928;7.172;2024-03-06T02:18:57;3.60;;;3.30;;
12848;SDS011;6493;50.928;7.172;2024-03-06T02:24:02;3.47;;;3.03;;
12848;SDS011;6493;50.928;7.172;2024-03-06T02:29:06;5.03;;;4.00;;
12848;SDS011;6493;50.928;7.172;2024-03-06T02:34:11;4.00;;;3.43;;
12848;SDS011;6493;50.928;7.172;2024-03-06T02:39:17;4.03;;;3.43;;
12848;SDS011;6493;50.928;7.172;2024-03-06T02:44:21;3.13;;;2.83;;
12848;SDS011;6493;50.928;7.172;2024-03-06T02:49:25;2.73;;;2.47;;
12848;SDS011;6493;50.928;7.172;2024-03-06T02:54:30;3.30;;;3.00;;
12848;SDS011;6493;50.928;7.172;2024-03-06T02:59:34;2.90;;;2.60;;
12848;SDS011;6493;50.928;7.172;2024-03-06T03:04:38;2.70;;;2.50;;
12848;SDS011;6493;50.928;7.172;2024-03-06T03:09:43;2.33;;;2.13;;
12848;SDS011;6493;50.928;7.172;2024-03-06T03:14:46;2.40;;;2.20;;
12848;SDS011;6493;50.928;7.172;2024-03-06T03:19:50;2.60;;;2.40;;
12848;SDS011;6493;50.928;7.172;2024-03-06T03:24:55;3.47;;;2.97;;
12848;SDS011;6493;50.928;7.172;2024-03-06T03:29:59;2.50;;;2.30;;
12848;SDS011;6493;50.928;7.172;2024-03-06T03:35:03;2.20;;;1.97;;
12848;SDS011;6493;50.928;7.172;2024-03-06T03:40:09;2.20;;;2.07;;
12848;SDS011;6493;50.928;7.172;2024-03-06T03:45:14;2.23;;;2.03;;
12848;SDS011;6493;50.928;7.172;2024-03-06T03:50:18;2.63;;;2.43;;
12848;SDS011;6493;50.928;7.172;2024-03-06T03:55:23;2.23;;;2.03;;
12848;SDS011;6493;50.928;7.172;2024-03-06T04:00:27;2.83;;;2.57;;
12848;SDS011;6493;50.928;7.172;2024-03-06T04:05:32;3.13;;;2.83;;
12848;SDS011;6493;50.928;7.172;2024-03-06T04:10:38;2.53;;;2.33;;
12848;SDS011;6493;50.928;7.172;2024-03-06T04:15:43;3.27;;;2.60;;
12848;SDS011;6493;50.928;7.172;2024-03-06T04:20:47;2.80;;;2.60;;
12848;SDS011;6493;50.928;7.172;2024-03-06T04:25:52;2.23;;;2.03;;
12848;SDS011;6493;50.928;7.172;2024-03-06T04:30:56;2.63;;;2.40;;
12848;SDS011;6493;50.928;7.172;2024-03-06T04:36:00;2.63;;;2.43;;
12848;SDS011;6493;50.928;7.172;2024-03-06T04:41:06;2.50;;;2.30;;
12848;SDS011;6493;50.928;7.172;2024-03-06T04:46:12;2.27;;;2.07;;
12848;SDS011;6493;50.928;7.172;2024-03-06T04:51:16;1.97;;;1.87;;
12848;SDS011;6493;50.928;7.172;2024-03-06T04:56:23;2.30;;;2.10;;
12848;SDS011;6493;50.928;7.172;2024-03-06T05:01:26;1.80;;;1.70;;
12848;SDS011;6493;50.928;7.172;2024-03-06T05:06:31;2.37;;;2.17;;
12848;SDS011;6493;50.928;7.172;2024-03-06T05:11:53;2.23;;;2.03;;
12848;SDS011;6493;50.928;7.172;2024-03-06T05:17:14;2.27;;;2.07;;
12848;SDS011;6493;50.928;7.172;2024-03-06T05:22:36;2.23;;;2.03;;
12848;SDS011;6493;50.928;7.172;2024-03-06T05:27:59;2.53;;;2.33;;
12848;SDS011;6493;50.928;7.172;2024-03-06T05:33:20;2.20;;;2.00;;
12848;SDS011;6493;50.928;7.172;2024-03-06T05:38:41;2.00;;;1.73;;
12848;SDS011;6493;50.928;7.172;2024-03-06T05:44:04;2.10;;;1.90;;
12848;SDS011;6493;50.928;7.172;2024-03-06T05:49:26;2.13;;;1.93;;
12848;SDS011;6493;50.928;7.172;2024-03-06T05:54:47;2.20;;;2.00;;
12848;SDS011;6493;50.928;7.172;2024-03-06T06:00:12;2.00;;;1.80;;
12848;SDS011;6493;50.928;7.172;2024-03-06T06:05:16;2.17;;;1.97;;
12848;SDS011;6493;50.928;7.172;2024-03-06T06:10:25;2.20;;;2.00;;
12848;SDS011;6493;50.928;7.172;2024-03-06T06:15:30;2.20;;;2.00;;
12848;SDS011;6493;50.928;7.172;2024-03-06T06:20:33;2.10;;;1.90;;
12848;SDS011;6493;50.928;7.172;2024-03-06T06:25:37;2.40;;;2.20;;
12848;SDS011;6493;50.928;7.172;2024-03-06T06:30:42;3.57;;;2.53;;
12848;SDS011;6493;50.928;7.172;2024-03-06T06:35:47;2.50;;;2.30;;
12848;SDS011;6493;50.928;7.172;2024-03-06T06:40:51;2.37;;;2.17;;
12848;SDS011;6493;50.928;7.172;2024-03-06T06:45:57;2.17;;;1.97;;
12848;SDS011;6493;50.928;7.172;2024-03-06T06:51:03;1.87;;;1.77;;
12848;SDS011;6493;50.928;7.172;2024-03-06T06:56:06;2.07;;;1.97;;
12848;SDS011;6493;50.928;7.172;2024-03-06T07:01:12;2.13;;;2.03;;
12848;SDS011;6493;50.928;7.172;2024-03-06T07:06:17;2.20;;;2.00;;
12848;SDS011;6493;50.928;7.172;2024-03-06T07:11:21;4.90;;;2.73;;
12848;SDS011;6493;50.928;7.172;2024-03-06T07:16:27;2.67;;;2.47;;
12848;SDS011;6493;50.928;7.172;2024-03-06T07:21:31;3.93;;;3.50;;
12848;SDS011;6493;50.928;7.172;2024-03-06T07:26:35;3.03;;;2.73;;
12848;SDS011;6493;50.928;7.172;2024-03-06T07:31:40;2.90;;;2.27;;
12848;SDS011;6493;50.928;7.172;2024-03-06T07:36:44;2.90;;;2.63;;
12848;SDS011;6493;50.928;7.172;2024-03-06T07:41:49;2.63;;;2.43;;
12848;SDS011;6493;50.928;7.172;2024-03-06T07:46:54;2.73;;;2.53;;
12848;SDS011;6493;50.928;7.172;2024-03-06T07:51:58;3.07;;;2.77;;
12848;SDS011;6493;50.928;7.172;2024-03-06T07:57:02;4.07;;;3.47;;
12848;SDS011;6493;50.928;7.172;2024-03-06T08:02:07;4.17;;;3.77;;
12848;SDS011;6493;50.928;7.172;2024-03-06T08:07:11;3.67;;;3.37;;
12848;SDS011;6493;50.928;7.172;2024-03-06T08:12:14;4.27;;;3.87;;
12848;SDS011;6493;50.928;7.172;2024-03-06T08:17:20;3.57;;;3.27;;
12848;SDS011;6493;50.928;7.172;2024-03-06T08:22:23;5.27;;;4.30;;
12848;SDS011;6493;50.928;7.172;2024-03-06T08:27:29;4.77;;;3.97;;
12848;SDS011;6493;50.928;7.172;2024-03-06T08:32:35;4.13;;;3.67;;
12848;SDS011;6493;50.928;7.172;2024-03-06T08:37:40;3.77;;;3.47;;
12848;SDS011;6493;50.928;7.172;2024-03-06T08:42:44;9.43;;;6.97;;
12848;SDS011;6493;50.928;7.172;2024-03-06T08:47:51;6.43;;;4.57;;
12848;SDS011;6493;50.928;7.172;2024-03-06T08:52:56;5.30;;;4.40;;
12848;SDS011;6493;50.928;7.172;2024-03-06T08:58:07;6.90;;;5.00;;
12848;SDS011;6493;50.928;7.172;2024-03-06T09:03:12;7.23;;;5.93;;
12848;SDS011;6493;50.928;7.172;2024-03-06T09:08:18;7.13;;;5.37;;
12848;SDS011;6493;50.928;7.172;2024-03-06T09:13:23;7.07;;;5.40;;
12848;SDS011;6493;50.928;7.172;2024-03-06T09:18:28;6.27;;;5.63;;
12848;SDS011;6493;50.928;7.172;2024-03-06T09:23:37;7.10;;;5.33;;
12848;SDS011;6493;50.928;7.172;2024-03-06T09:28:41;5.07;;;4.50;;
12848;SDS011;6493;50.928;7.172;2024-03-06T09:33:46;6.73;;;5.63;;
12848;SDS011;6493;50.928;7.172;2024-03-06T09:38:50;5.97;;;5.00;;
12848;SDS011;6493;50.928;7.172;2024-03-06T09:43:54;6.20;;;4.73;;
12848;SDS011;6493;50.928;7.172;2024-03-06T09:48:59;4.77;;;3.60;;
12848;SDS011;6493;50.928;7.172;2024-03-06T09:54:05;4.27;;;3.60;;
12848;SDS011;6493;50.928;7.172;2024-03-06T09:59:11;7.77;;;6.07;;
12848;SDS011;6493;50.928;7.172;2024-03-06T10:04:21;6.93;;;6.23;;
12848;SDS011;6493;50.928;7.172;2024-03-06T10:09:27;5.60;;;4.53;;
12848;SDS011;6493;50.928;7.172;2024-03-06T10:14:31;4.60;;;3.43;;
12848;SDS011;6493;50.928;7.172;2024-03-06T10:19:36;5.90;;;4.93;;
12848;SDS011;6493;50.928;7.172;2024-03-06T10:24:41;9.23;;;7.30;;
12848;SDS011;6493;50.928;7.172;2024-03-06T10:29:46;9.87;;;7.70;;
12848;SDS011;6493;50.928;7.172;2024-03-06T10:35:08;5.83;;;5.10;;
12848;SDS011;6493;50.928;7.172;2024-03-06T10:40:24;7.00;;;6.07;;
12848;SDS011;6493;50.928;7.172;2024-03-06T10:45:33;5.67;;;5.07;;
12848;SDS011;6493;50.928;7.172;2024-03-06T10:50:45;7.77;;;6.17;;
12848;SDS011;6493;50.928;7.172;2024-03-06T10:55:50;5.20;;;4.47;;
12848;SDS011;6493;50.928;7.172;2024-03-06T11:00:55;6.20;;;5.50;;
12848;SDS011;6493;50.928;7.172;2024-03-06T11:06:02;6.63;;;5.40;;
12848;SDS011;6493;50.928;7.172;2024-03-06T11:11:18;4.03;;;3.63;;
12848;SDS011;6493;50.928;7.172;2024-03-06T11:16:28;4.90;;;3.97;;
12848;SDS011;6493;50.928;7.172;2024-03-06T11:21:38;5.33;;;4.83;;
12848;SDS011;6493;50.928;7.172;2024-03-06T11:26:50;4.83;;;4.33;;
12848;SDS011;6493;50.928;7.172;2024-03-06T11:32:03;5.13;;;4.43;;
12848;SDS011;6493;50.928;7.172;2024-03-06T11:37:11;3.57;;;3.20;;
12848;SDS011;6493;50.928;7.172;2024-03-06T11:42:15;3.23;;;2.93;;
12848;SDS011;6493;50.928;7.172;2024-03-06T11:47:19;2.57;;;2.37;;
12848;SDS011;6493;50.928;7.172;2024-03-06T11:52:24;2.60;;;2.40;;
12848;SDS011;6493;50.928;7.172;2024-03-06T11:57:28;2.40;;;2.20;;
12848;SDS011;6493;50.928;7.172;2024-03-06T12:02:32;3.43;;;3.13;;
12848;SDS011;6493;50.928;7.172;2024-03-06T12:07:45;2.63;;;2.43;;
12848;SDS011;6493;50.928;7.172;2024-03-06T12:12:50;3.77;;;3.07;;
12848;SDS011;6493;50.928;7.172;2024-03-06T12:17:54;2.93;;;2.63;;
12848;SDS011;6493;50.928;7.172;2024-03-06T12:23:00;3.10;;;2.50;;
12848;SDS011;6493;50.928;7.172;2024-03-06T12:28:06;2.00;;;1.80;;
12848;SDS011;6493;50.928;7.172;2024-03-06T12:33:15;2.33;;;1.90;;
12848;SDS011;6493;50.928;7.172;2024-03-06T12:38:21;1.70;;;1.60;;
12848;SDS011;6493;50.928;7.172;2024-03-06T12:43:26;1.57;;;1.30;;
12848;SDS011;6493;50.928;7.172;2024-03-06T12:48:31;1.20;;;1.10;;
12848;SDS011;6493;50.928;7.172;2024-03-06T12:53:36;1.87;;;1.67;;
12848;SDS011;6493;50.928;7.172;2024-03-06T12:58:42;2.13;;;1.93;;
12848;SDS011;6493;50.928;7.172;2024-03-06T13:03:46;1.43;;;1.33;;
12848;SDS011;6493;50.928;7.172;2024-03-06T13:08:52;0.77;;;0.77;;
12848;SDS011;6493;50.928;7.172;2024-03-06T13:13:56;0.73;;;0.73;;
12848;SDS011;6493;50.928;7.172;2024-03-06T13:19:00;0.80;;;0.73;;
12848;SDS011;6493;50.928;7.172;2024-03-06T13:24:07;0.77;;;0.77;;
12848;SDS011;6493;50.928;7.172;2024-03-06T13:29:11;0.60;;;0.60;;
12848;SDS011;6493;50.928;7.172;2024-03-06T13:34:16;0.50;;;0.50;;
12848;SDS011;6493;50.928;7.172;2024-03-06T13:39:22;0.80;;;0.80;;
12848;SDS011;6493;50.928;7.172;2024-03-06T13:44:26;0.50;;;0.50;;
12848;SDS011;6493;50.928;7.172;2024-03-06T13:49:36;0.80;;;0.80;;
12848;SDS011;6493;50.928;7.172;2024-03-06T13:54:43;1.40;;;1.30;;
12848;SDS011;6493;50.928;7.172;2024-03-06T13:59:47;1.10;;;1.00;;
12848;SDS011;6493;50.928;7.172;2024-03-06T14:04:52;0.80;;;0.80;;
12848;SDS011;6493;50.928;7.172;2024-03-06T14:09:57;1.20;;;1.07;;
12848;SDS011;6493;50.928;7.172;2024-03-06T14:15:06;0.80;;;0.77;;
12848;SDS011;6493;50.928;7.172;2024-03-06T14:20:15;0.63;;;0.63;;
12848;SDS011;6493;50.928;7.172;2024-03-06T14:25:22;0.90;;;0.67;;
12848;SDS011;6493;50.928;7.172;2024-03-06T14:30:28;0.60;;;0.50;;
12848;SDS011;6493;50.928;7.172;2024-03-06T14:35:32;0.50;;;0.50;;
12848;SDS011;6493;50.928;7.172;2024-03-06T14:40:38;0.60;;;0.60;;
12848;SDS011;6493;50.928;7.172;2024-03-06T14:45:44;0.80;;;0.80;;
12848;SDS011;6493;50.928;7.172;2024-03-06T14:50:48;0.67;;;0.40;;
12848;SDS011;6493;50.928;7.172;2024-03-06T15:01:02;1.03;;;0.83;;
12848;SDS011;6493;50.928;7.172;2024-03-06T15:06:16;1.30;;;1.20;;
12848;SDS011;6493;50.928;7.172;2024-03-06T15:11:35;2.30;;;1.83;;
12848;SDS011;6493;50.928;7.172;2024-03-06T15:16:38;1.80;;;1.67;;
12848;SDS011;6493;50.928;7.172;2024-03-06T15:21:43;2.20;;;2.00;;
12848;SDS011;6493;50.928;7.172;2024-03-06T15:26:48;2.70;;;2.37;;
12848;SDS011;6493;50.928;7.172;2024-03-06T15:31:52;2.33;;;1.70;;
12848;SDS011;6493;50.928;7.172;2024-03-06T15:36:57;1.90;;;1.50;;
12848;SDS011;6493;50.928;7.172;2024-03-06T15:42:03;1.20;;;1.10;;
12848;SDS011;6493;50.928;7.172;2024-03-06T15:47:08;1.40;;;1.30;;
12848;SDS011;6493;50.928;7.172;2024-03-06T15:52:18;3.07;;;1.20;;
12848;SDS011;6493;50.928;7.172;2024-03-06T15:57:41;1.60;;;1.50;;
12848;SDS011;6493;50.928;7.172;2024-03-06T16:02:46;1.47;;;1.37;;
12848;SDS011;6493;50.928;7.172;2024-03-06T16:07:59;1.10;;;1.00;;
12848;SDS011;6493;50.928;7.172;2024-03-06T16:13:08;1.33;;;1.03;;
12848;SDS011;6493;50.928;7.172;2024-03-06T16:18:22;1.60;;;1.03;;
12848;SDS011;6493;50.928;7.172;2024-03-06T16:23:26;0.80;;;0.80;;
12848;SDS011;6493;50.928;7.172;2024-03-06T16:28:32;1.13;;;1.03;;
12848;SDS011;6493;50.928;7.172;2024-03-06T16:33:37;1.20;;;0.80;;
12848;SDS011;6493;50.928;7.172;2024-03-06T16:38:41;1.57;;;1.23;;
12848;SDS011;6493;50.928;7.172;2024-03-06T16:43:52;1.40;;;1.30;;
12848;SDS011;6493;50.928;7.172;2024-03-06T16:48:57;1.30;;;1.20;;
12848;SDS011;6493;50.928;7.172;2024-03-06T16:54:01;1.70;;;1.60;;
12848;SDS011;6493;50.928;7.172;2024-03-06T16:59:06;1.60;;;1.50;;
12848;SDS011;6493;50.928;7.172;2024-03-06T17:04:10;0.93;;;0.90;;
12848;SDS011;6493;50.928;7.172;2024-03-06T17:09:14;1.30;;;1.20;;
12848;SDS011;6493;50.928;7.172;2024-03-06T17:14:20;1.20;;;1.10;;
12848;SDS011;6493;50.928;7.172;2024-03-06T17:19:25;0.93;;;0.90;;
12848;SDS011;6493;50.928;7.172;2024-03-06T17:38:12;1.00;;;0.77;;
12848;SDS011;6493;50.928;7.172;2024-03-06T17:43:22;1.00;;;0.90;;
12848;SDS011;6493;50.928;7.172;2024-03-06T17:48:47;1.50;;;1.00;;
12848;SDS011;6493;50.928;7.172;2024-03-06T17:54:03;1.13;;;1.03;;
12848;SDS011;6493;50.928;7.172;2024-03-06T17:59:26;1.67;;;1.00;;
12848;SDS011;6493;50.928;7.172;2024-03-06T18:04:40;2.73;;;2.17;;
12848;SDS011;6493;50.928;7.172;2024-03-06T18:09:57;2.33;;;2.13;;
12848;SDS011;6493;50.928;7.172;2024-03-06T18:15:28;2.87;;;2.67;;
12848;SDS011;6493;50.928;7.172;2024-03-06T18:20:43;2.97;;;2.73;;
12848;SDS011;6493;50.928;7.172;2024-03-06T18:25:49;2.80;;;2.60;;
12848;SDS011;6493;50.928;7.172;2024-03-06T18:31:57;4.97;;;4.57;;
12848;SDS011;6493;50.928;7.172;2024-03-06T18:37:35;4.70;;;4.20;;
12848;SDS011;6493;50.928;7.172;2024-03-06T18:43:19;5.60;;;5.00;;
12848;SDS011;6493;50.928;7.172;2024-03-06T18:48:55;6.77;;;6.17;;
12848;SDS011;6493;50.928;7.172;2024-03-06T18:54:20;7.70;;;6.63;;
12848;SDS011;6493;50.928;7.172;2024-03-06T18:59:52;6.77;;;6.17;;
12848;SDS011;6493;50.928;7.172;2024-03-06T19:06:37;6.23;;;5.63;;
12848;SDS011;6493;50.928;7.172;2024-03-06T19:26:56;8.97;;;8.07;;
12848;SDS011;6493;50.928;7.172;2024-03-06T19:32:55;9.70;;;8.57;;
12848;SDS011;6493;50.928;7.172;2024-03-06T19:39:05;8.50;;;7.60;;
12848;SDS011;6493;50.928;7.172;2024-03-06T19:45:16;7.13;;;6.43;;
12848;SDS011;6493;50.928;7.172;2024-03-06T19:50:25;7.07;;;6.37;;
12848;SDS011;6493;50.928;7.172;2024-03-06T19:55:31;10.07;;;9.10;;
12848;SDS011;6493;50.928;7.172;2024-03-06T20:00:43;10.10;;;8.43;;
12848;SDS011;6493;50.928;7.172;2024-03-06T20:05:47;10.83;;;8.77;;
12848;SDS011;6493;50.928;7.172;2024-03-06T20:10:54;9.10;;;8.20;;
12848;SDS011;6493;50.928;7.172;2024-03-06T20:16:12;8.43;;;7.60;;
12848;SDS011;6493;50.928;7.172;2024-03-06T20:21:16;8.87;;;7.97;;
12848;SDS011;6493;50.928;7.172;2024-03-06T20:26:22;8.47;;;7.67;;
12848;SDS011;6493;50.928;7.172;2024-03-06T20:31:29;7.73;;;6.93;;
12848;SDS011;6493;50.928;7.172;2024-03-06T20:36:34;8.27;;;6.63;;
12848;SDS011;6493;50.928;7.172;2024-03-06T20:41:40;9.33;;;6.43;;
12848;SDS011;6493;50.928;7.172;2024-03-06T20:46:44;6.83;;;6.13;;
12848;SDS011;6493;50.928;7.172;2024-03-06T20:51:49;9.10;;;7.80;;
12848;SDS011;6493;50.928;7.172;2024-03-06T20:56:59;9.37;;;8.40;;
12848;SDS011;6493;50.928;7.172;2024-03-06T21:02:04;8.17;;;7.37;;
12848;SDS011;6493;50.928;7.172;2024-03-06T21:07:12;9.30;;;8.30;;
12848;SDS011;6493;50.928;7.172;2024-03-06T21:12:20;10.67;;;9.03;;
12848;SDS011;6493;50.928;7.172;2024-03-06T21:17:24;10.23;;;8.37;;
12848;SDS011;6493;50.928;7.172;2024-03-06T21:22:29;9.60;;;8.47;;
12848;SDS011;6493;50.928;7.172;2024-03-06T21:27:44;10.67;;;8.50;;
12848;SDS011;6493;50.928;7.172;2024-03-06T21:32:54;10.00;;;8.60;;
12848;SDS011;6493;50.928;7.172;2024-03-06T21:38:07;10.90;;;9.33;;
12848;SDS011;6493;50.928;7.172;2024-03-06T21:43:13;8.73;;;7.57;;
12848;SDS011;6493;50.928;7.172;2024-03-06T21:48:17;8.97;;;8.03;;
12848;SDS011;6493;50.928;7.172;2024-03-06T21:53:21;9.73;;;8.37;;
12848;SDS011;6493;50.928;7.172;2024-03-06T21:58:26;8.87;;;7.77;;
12848;SDS011;6493;50.928;7.172;2024-03-06T22:03:30;7.70;;;6.30;;
12848;SDS011;6493;50.928;7.172;2024-03-06T22:08:35;8.10;;;7.30;;
12848;SDS011;6493;50.928;7.172;2024-03-06T22:13:43;10.47;;;8.30;;
12848;SDS011;6493;50.928;7.172;2024-03-06T22:18:54;9.07;;;7.40;;
12848;SDS011;6493;50.928;7.172;2024-03-06T22:23:58;8.60;;;7.40;;
12848;SDS011;6493;50.928;7.172;2024-03-06T22:29:03;10.43;;;8.30;;
12848;SDS011;6493;50.928;7.172;2024-03-06T22:34:08;9.57;;;6.47;;
12848;SDS011;6493;50.928;7.172;2024-03-06T22:39:12;6.90;;;5.80;;
12848;SDS011;6493;50.928;7.172;2024-03-06T22:44:17;7.93;;;6.47;;
12848;SDS011;6493;50.928;7.172;2024-03-06T22:49:21;8.27;;;5.97;;
12848;SDS011;6493;50.928;7.172;2024-03-06T22:54:26;6.37;;;5.10;;
12848;SDS011;6493;50.928;7.172;2024-03-06T22:59:31;6.23;;;5.00;;
12848;SDS011;6493;50.928;7.172;2024-03-06T23:04:37;4.97;;;4.37;;
12848;SDS011;6493;50.928;7.172;2024-03-06T23:09:41;4.50;;;4.10;;
12848;SDS011;6493;50.928;7.172;2024-03-06T23:14:46;6.37;;;5.00;;
12848;SDS011;6493;50.928;7.172;2024-03-06T23:19:50;5.87;;;4.77;;
12848;SDS011;6493;50.928;7.172;2024-03-06T23:24:54;5.10;;;4.50;;
12848;SDS011;6493;50.928;7.172;2024-03-06T23:29:59;5.60;;;4.53;;
12848;SDS011;6493;50.928;7.172;2024-03-06T23:35:03;4.67;;;3.93;;
12848;SDS011;6493;50.928;7.172;2024-03-06T23:40:10;4.77;;;4.07;;
12848;SDS011;6493;50.928;7.172;2024-03-06T23:45:17;4.50;;;3.93;;
12848;SDS011;6493;50.928;7.172;2024-03-06T23:50:22;4.67;;;4.23;;
12848;SDS011;6493;50.928;7.172;2024-03-06T23:55:26;6.83;;;5.67;;
